Time;durP1;ratioP1;P1;durP2;ratioP2;P2;SDS_P1;SDS_P2;PMS_P1;PMS_P2;Temp;Humidity;BMP_temperature;BMP_pressure;BME280_temperature;BME280_humidity;BME280_pressure;Samples;Min_cycle;Max_cycle;Signal;HPM_P1;HPM_P2
2021/12/23 00:01:43;;;;;;;4.30;3.25;;;18.20;58.20;;;;;;10387676;28;20030;-60
2021/12/23 00:06:44;;;;;;;3.45;2.55;;;18.20;58.10;;;;;;10374921;28;20069;-61
2021/12/23 00:11:45;;;;;;;3.42;2.88;;;18.20;58.00;;;;;;10374754;28;20523;-59
2021/12/23 00:16:47;;;;;;;3.63;3.00;;;18.20;58.00;;;;;;10373902;28;20026;-61
2021/12/23 00:27:10;;;;;;;3.92;2.88;;;18.20;57.90;;;;;;10374592;28;20050;-59
2021/12/23 00:32:10;;;;;;;4.20;3.05;;;18.30;57.90;;;;;;10374163;28;20037;-59
2021/12/23 00:37:12;;;;;;;3.75;2.38;;;18.20;57.80;;;;;;10373361;28;20431;-59
2021/12/23 00:42:13;;;;;;;3.60;2.47;;;18.20;57.70;;;;;;10373941;28;20032;-60
2021/12/23 00:47:15;;;;;;;3.47;2.45;;;18.20;57.60;;;;;;10373330;28;20040;-59
2021/12/23 00:52:22;;;;;;;3.78;2.65;;;18.30;57.70;;;;;;10373301;28;20029;-60
2021/12/23 00:57:27;;;;;;;3.55;2.63;;;18.20;57.60;;;;;;10371704;28;20071;-60
2021/12/23 01:02:31;;;;;;;4.55;2.60;;;18.30;57.60;;;;;;10385436;28;20041;-61
2021/12/23 01:07:31;;;;;;;3.42;2.35;;;18.30;57.50;;;;;;10372735;28;20034;-61
2021/12/23 01:12:41;;;;;;;3.28;2.42;;;18.30;57.50;;;;;;10373227;28;20108;-61
2021/12/23 01:18:29;;;;;;;3.58;2.75;;;18.20;57.40;;;;;;10372242;28;20546;-61
2021/12/23 01:23:10;;;;;;;4.05;3.10;;;18.30;57.50;;;;;;10376733;28;20125;-61
2021/12/23 01:28:11;;;;;;;3.53;2.58;;;18.30;57.40;;;;;;10371643;28;20030;-60
2021/12/23 01:33:13;;;;;;;3.60;2.70;;;18.20;57.40;;;;;;10372467;28;20034;-61
2021/12/23 01:38:13;;;;;;;4.25;2.90;;;18.20;57.40;;;;;;10371734;28;20041;-59
2021/12/23 01:43:17;;;;;;;3.08;2.13;;;18.30;57.40;;;;;;10371836;28;20038;-61
2021/12/23 01:48:19;;;;;;;3.38;2.83;;;18.30;57.40;;;;;;10371649;28;20041;-60
2021/12/23 01:53:20;;;;;;;3.05;2.03;;;18.30;57.40;;;;;;10371380;28;20380;-60
2021/12/23 01:58:21;;;;;;;3.28;2.58;;;18.20;57.40;;;;;;10371240;28;20395;-60
2021/12/23 02:03:22;;;;;;;2.95;2.10;;;18.30;57.40;;;;;;10382677;28;20430;-62
2021/12/23 02:08:23;;;;;;;3.28;2.20;;;18.30;57.40;;;;;;10371369;28;20045;-61
2021/12/23 02:13:24;;;;;;;4.60;2.53;;;18.30;57.30;;;;;;10370948;28;20510;-60
2021/12/23 02:18:25;;;;;;;2.53;2.13;;;18.20;57.20;;;;;;10371487;28;20069;-60
2021/12/23 02:23:26;;;;;;;2.83;2.05;;;18.30;57.30;;;;;;10370797;28;20038;-60
2021/12/23 02:28:27;;;;;;;3.28;2.47;;;18.20;57.20;;;;;;10370947;28;20400;-60
2021/12/23 02:33:28;;;;;;;3.45;2.30;;;18.20;57.20;;;;;;10369147;28;20026;-60
2021/12/23 02:38:29;;;;;;;3.20;2.83;;;18.20;57.20;;;;;;10375734;28;20092;-60
2021/12/23 02:43:30;;;;;;;3.75;2.10;;;18.30;57.10;;;;;;10377958;28;20038;-60
2021/12/23 02:48:36;;;;;;;3.60;2.80;;;18.30;57.10;;;;;;10378075;28;20044;-60
2021/12/23 02:53:39;;;;;;;4.00;2.53;;;18.30;57.10;;;;;;10376371;28;20030;-61
2021/12/23 02:58:40;;;;;;;4.45;2.63;;;18.30;57.10;;;;;;10377820;28;20037;-59
2021/12/23 03:03:42;;;;;;;3.22;2.22;;;18.30;57.00;;;;;;10389808;28;20030;-60
2021/12/23 03:08:47;;;;;;;3.20;2.38;;;18.30;56.90;;;;;;10377395;28;20041;-59
2021/12/23 03:13:49;;;;;;;3.70;2.63;;;18.30;56.90;;;;;;10377220;28;20018;-61
2021/12/23 03:18:50;;;;;;;3.05;2.10;;;18.30;56.90;;;;;;10375544;28;20475;-62
2021/12/23 03:23:51;;;;;;;3.58;2.25;;;18.30;57.00;;;;;;10376502;28;20541;-60
2021/12/23 03:28:52;;;;;;;2.70;2.05;;;18.30;57.00;;;;;;10376656;28;20034;-61
2021/12/23 03:33:53;;;;;;;2.60;2.03;;;18.30;56.90;;;;;;10375969;28;20060;-60
2021/12/23 03:38:53;;;;;;;3.10;2.35;;;18.30;57.00;;;;;;10376328;28;20038;-61
2021/12/23 03:43:54;;;;;;;2.55;2.08;;;18.30;56.90;;;;;;10375749;28;20096;-60
2021/12/23 03:48:55;;;;;;;2.85;2.05;;;18.30;56.90;;;;;;10375241;28;20040;-61
2021/12/23 03:53:55;;;;;;;3.25;2.15;;;18.30;56.90;;;;;;10375319;28;20373;-60
2021/12/23 03:58:57;;;;;;;3.17;2.15;;;18.30;56.90;;;;;;10375263;28;20365;-59
2021/12/23 04:03:58;;;;;;;2.65;2.00;;;18.30;56.90;;;;;;10387033;28;20034;-60
2021/12/23 04:08:58;;;;;;;3.00;2.08;;;18.30;56.90;;;;;;10374561;28;20042;-59
2021/12/23 04:13:59;;;;;;;3.53;2.38;;;18.30;56.90;;;;;;10374987;28;20118;-60
2021/12/23 04:19:05;;;;;;;3.20;2.10;;;18.30;56.90;;;;;;10374304;28;20129;-62
2021/12/23 04:24:07;;;;;;;3.13;2.28;;;18.30;56.80;;;;;;10374127;28;20041;-60
2021/12/23 04:29:08;;;;;;;3.85;2.58;;;18.30;56.80;;;;;;10374261;28;20554;-61
2021/12/23 04:34:09;;;;;;;3.75;2.50;;;18.30;56.80;;;;;;10388678;28;20042;-59
2021/12/23 04:39:10;;;;;;;3.47;2.10;;;18.30;56.80;;;;;;10374080;28;20438;-60
2021/12/23 04:44:12;;;;;;;3.80;2.20;;;18.30;56.60;;;;;;10373583;28;20113;-60
2021/12/23 04:49:13;;;;;;;3.53;2.28;;;18.40;56.60;;;;;;10373100;28;20484;-59
2021/12/23 04:54:13;;;;;;;2.63;2.22;;;18.40;56.50;;;;;;10373379;28;20113;-59
2021/12/23 04:59:15;;;;;;;3.28;2.47;;;18.40;56.60;;;;;;10370647;28;20037;-59
2021/12/23 05:04:15;;;;;;;3.20;2.10;;;18.40;56.60;;;;;;10377606;28;20026;-61
2021/12/23 05:09:16;;;;;;;3.10;2.10;;;18.40;56.60;;;;;;10372660;28;20060;-60
2021/12/23 05:14:17;;;;;;;2.97;2.20;;;18.40;56.50;;;;;;10372345;28;20185;-60
2021/12/23 05:19:17;;;;;;;3.00;2.20;;;18.30;56.50;;;;;;10372593;28;20117;-62
2021/12/23 05:24:18;;;;;;;2.67;2.38;;;18.40;56.50;;;;;;10371533;28;20097;-61
2021/12/23 05:29:19;;;;;;;3.60;2.28;;;18.40;56.50;;;;;;10369304;28;20037;-61
2021/12/23 05:34:20;;;;;;;2.97;2.08;;;18.30;56.50;;;;;;10369317;28;20107;-59
2021/12/23 05:39:20;;;;;;;3.08;2.25;;;18.40;56.50;;;;;;10371361;28;20044;-57
2021/12/23 05:44:21;;;;;;;3.70;2.20;;;18.30;56.40;;;;;;10370326;28;20101;-60
2021/12/23 05:49:22;;;;;;;2.65;1.58;;;18.30;56.60;;;;;;10370219;28;20061;-58
2021/12/23 05:54:23;;;;;;;4.10;2.35;;;18.40;56.90;;;;;;10369875;28;20048;-61
2021/12/23 05:59:23;;;;;;;4.50;2.20;;;18.40;57.80;;;;;;10371808;28;20392;-60
2021/12/23 06:04:25;;;;;;;4.88;2.92;;;18.40;58.20;;;;;;10373851;28;20133;-59
2021/12/23 06:09:25;;;;;;;5.40;2.65;;;18.50;57.60;;;;;;10371123;28;20041;-59
2021/12/23 06:14:26;;;;;;;6.75;2.67;;;18.50;57.90;;;;;;10377823;28;20387;-58
2021/12/23 06:19:27;;;;;;;5.25;2.05;;;18.50;57.80;;;;;;10379241;28;20472;-60
2021/12/23 06:24:27;;;;;;;5.22;2.05;;;18.60;58.40;;;;;;10379036;28;20026;-62
2021/12/23 06:29:28;;;;;;;7.78;2.65;;;18.70;58.90;;;;;;10378903;28;20038;-60
2021/12/23 06:34:29;;;;;;;5.80;3.03;;;18.70;59.00;;;;;;10378479;28;20408;-59
2021/12/23 06:39:32;;;;;;;6.75;2.80;;;18.70;59.10;;;;;;10378191;28;20069;-59
2021/12/23 06:44:33;;;;;;;10.73;3.13;;;18.70;58.40;;;;;;10378452;28;20033;-59
2021/12/23 06:49:34;;;;;;;22.40;3.83;;;18.60;58.60;;;;;;10378244;28;20431;-60
2021/12/23 06:54:41;;;;;;;19.00;3.63;;;18.50;58.10;;;;;;10377342;28;20034;-59
2021/12/23 06:59:42;;;;;;;13.80;4.50;;;18.60;57.90;;;;;;10377123;28;20103;-62
2021/12/23 07:04:44;;;;;;;10.27;3.85;;;18.60;58.40;;;;;;10381228;28;20590;-63
2021/12/23 07:09:44;;;;;;;11.60;3.85;;;18.50;58.30;;;;;;10373237;28;20045;-62
2021/12/23 07:14:45;;;;;;;8.32;3.72;;;18.60;58.00;;;;;;10371138;28;20125;-62
2021/12/23 07:19:46;;;;;;;7.53;3.42;;;18.50;57.70;;;;;;10372309;28;20042;-63
2021/12/23 07:24:46;;;;;;;11.32;3.90;;;18.50;57.60;;;;;;10372239;28;20099;-62
2021/12/23 07:29:48;;;;;;;6.95;3.67;;;18.50;57.30;;;;;;10369148;28;20041;-62
2021/12/23 07:34:48;;;;;;;5.55;3.33;;;18.50;57.00;;;;;;10372337;28;20049;-62
2021/12/23 07:39:50;;;;;;;6.88;3.80;;;18.60;56.70;;;;;;10376423;28;20373;-62
2021/12/23 07:44:51;;;;;;;8.27;3.20;;;18.60;56.50;;;;;;10373750;28;20057;-61
2021/12/23 07:49:52;;;;;;;5.07;3.20;;;18.60;56.20;;;;;;10373721;28;20065;-63
2021/12/23 07:54:53;;;;;;;6.20;3.45;;;18.70;56.30;;;;;;10369187;28;20038;-62
2021/12/23 07:59:54;;;;;;;7.82;3.58;;;18.70;56.30;;;;;;10356621;28;20069;-62
2021/12/23 08:04:54;;;;;;;7.00;3.65;;;18.70;56.30;;;;;;10368275;28;20128;-63
2021/12/23 08:09:56;;;;;;;8.25;3.13;;;18.70;57.00;;;;;;10370249;28;20132;-61
2021/12/23 08:14:56;;;;;;;6.88;3.15;;;18.70;56.80;;;;;;10373315;28;20491;-61
2021/12/23 08:19:57;;;;;;;6.60;3.00;;;18.80;56.80;;;;;;10374264;28;20117;-61
2021/12/23 08:24:58;;;;;;;5.00;3.08;;;18.90;56.60;;;;;;10373047;28;20037;-62
2021/12/23 08:29:58;;;;;;;11.18;4.03;;;18.80;56.70;;;;;;10373954;28;20117;-62
2021/12/23 08:34:59;;;;;;;9.93;3.55;;;18.80;57.20;;;;;;10372899;28;20145;-62
2021/12/23 08:40:00;;;;;;;60.05;7.00;;;18.70;57.00;;;;;;10373590;28;20030;-62
2021/12/23 08:45:04;;;;;;;145.73;16.25;;;18.60;57.00;;;;;;10373483;28;20025;-62
2021/12/23 08:50:07;;;;;;;127.63;14.23;;;18.60;57.30;;;;;;10372222;28;20085;-62
2021/12/23 08:55:11;;;;;;;72.18;8.77;;;18.50;57.80;;;;;;10367837;28;20488;-62
2021/12/23 09:00:16;;;;;;;56.97;8.20;;;18.40;58.40;;;;;;10372347;28;20037;-61
2021/12/23 09:05:19;;;;;;;45.72;7.97;;;18.40;58.50;;;;;;10372634;28;20034;-62
2021/12/23 09:10:21;;;;;;;40.38;6.95;;;18.40;58.50;;;;;;10372672;28;20034;-62
2021/12/23 09:15:22;;;;;;;44.92;8.55;;;18.40;58.60;;;;;;10372426;28;20040;-62
2021/12/23 09:20:23;;;;;;;35.95;6.25;;;18.40;58.80;;;;;;10371973;28;20038;-62
2021/12/23 09:25:25;;;;;;;38.47;8.10;;;18.40;58.70;;;;;;10366381;28;20538;-62
2021/12/23 09:35:49;;;;;;;19.70;5.32;;;18.40;58.80;;;;;;10360630;28;20053;-63
2021/12/23 09:40:51;;;;;;;30.35;6.05;;;18.40;58.80;;;;;;10370974;28;20030;-62
2021/12/23 09:45:53;;;;;;;19.00;5.40;;;18.30;59.00;;;;;;10348720;28;20030;-61
2021/12/23 09:50:57;;;;;;;20.60;5.28;;;18.30;59.10;;;;;;10368431;28;20034;-61
2021/12/23 09:55:59;;;;;;;17.67;5.03;;;18.30;59.00;;;;;;10367077;28;20057;-61
2021/12/23 10:01:00;;;;;;;11.32;4.70;;;18.30;59.50;;;;;;10369451;28;20127;-62
2021/12/23 10:06:01;;;;;;;13.45;4.93;;;18.30;59.10;;;;;;10366664;28;20109;-62
2021/12/23 10:32:55;;;;;;;18.90;5.68;;;18.20;59.60;;;;;;10383140;28;20335;-62
2021/12/23 10:38:10;;;;;;;13.30;5.70;;;18.20;59.50;;;;;;10370328;28;20080;-62
2021/12/23 10:43:32;;;;;;;19.10;5.22;;;18.20;59.20;;;;;;10364805;28;20057;-62
2021/12/23 10:48:42;;;;;;;21.25;6.72;;;18.20;59.20;;;;;;10369434;28;20080;-63
2021/12/23 10:59:18;;;;;;;14.98;5.50;;;18.10;58.60;;;;;;10374297;28;20042;-62
2021/12/23 11:04:19;;;;;;;13.30;5.18;;;18.10;58.30;;;;;;10389925;28;20459;-62
2021/12/23 11:09:40;;;;;;;14.00;6.10;;;18.10;58.40;;;;;;10359013;28;20041;-61
2021/12/23 11:46:59;;;;;;;18.77;5.47;;;18.10;58.30;;;;;;10375405;28;20125;-63
2021/12/23 11:52:01;;;;;;;8.20;4.45;;;18.10;58.70;;;;;;10375367;28;20042;-61
2021/12/23 11:57:22;;;;;;;11.95;5.28;;;18.10;58.70;;;;;;10375325;28;20037;-62
2021/12/23 12:02:25;;;;;;;11.55;4.72;;;18.10;59.00;;;;;;10377877;28;20026;-63
2021/12/23 12:07:26;;;;;;;21.63;5.05;;;18.20;58.90;;;;;;10374907;28;20040;-62
2021/12/23 12:12:29;;;;;;;9.93;5.05;;;18.20;59.10;;;;;;10372988;28;20113;-61
2021/12/23 12:17:36;;;;;;;13.13;5.25;;;18.30;59.50;;;;;;10373346;28;20434;-61
2021/12/23 12:22:48;;;;;;;16.92;5.55;;;18.20;59.50;;;;;;10374118;28;20042;-60
2021/12/23 12:27:55;;;;;;;13.52;5.20;;;18.20;60.20;;;;;;10374189;28;20056;-61
2021/12/23 12:32:55;;;;;;;15.45;5.10;;;18.10;60.00;;;;;;10373391;28;20040;-61
2021/12/23 12:38:20;;;;;;;11.35;5.75;;;18.10;60.00;;;;;;10371644;28;20136;-61
2021/12/23 12:43:43;;;;;;;13.82;5.90;;;18.10;60.00;;;;;;10372981;28;20025;-62
2021/12/23 12:48:58;;;;;;;12.00;4.85;;;18.10;59.80;;;;;;10360533;28;20046;-61
2021/12/23 12:54:06;;;;;;;11.57;5.28;;;18.20;59.80;;;;;;10371441;28;20045;-61
2021/12/23 12:59:09;;;;;;;8.50;4.43;;;18.20;59.90;;;;;;10370714;28;20061;-61
2021/12/23 13:04:44;;;;;;;9.35;4.63;;;18.20;59.80;;;;;;10373286;28;20038;-62
2021/12/23 13:09:55;;;;;;;8.27;4.22;;;18.10;59.80;;;;;;10360450;28;20057;-61
2021/12/23 13:15:16;;;;;;;9.88;4.88;;;18.20;60.00;;;;;;10372318;28;20041;-61
2021/12/23 13:20:18;;;;;;;9.20;4.72;;;18.20;59.30;;;;;;10368066;28;20104;-62
2021/12/23 13:25:18;;;;;;;10.57;5.15;;;18.10;58.90;;;;;;10363005;28;20113;-61
2021/12/23 13:30:19;;;;;;;10.90;5.20;;;18.10;58.70;;;;;;10357593;28;20563;-62
2021/12/23 13:35:20;;;;;;;13.18;4.97;;;18.10;58.60;;;;;;10366321;28;20050;-62
2021/12/23 13:40:38;;;;;;;10.90;4.90;;;18.10;59.10;;;;;;10367492;28;20042;-61
2021/12/23 13:45:38;;;;;;;9.25;5.05;;;18.10;58.30;;;;;;10368585;28;20038;-61
2021/12/23 13:50:39;;;;;;;12.35;4.78;;;18.00;58.30;;;;;;10371107;28;20156;-62
2021/12/23 13:55:40;;;;;;;6.90;4.70;;;18.00;58.40;;;;;;10370488;28;20543;-62
2021/12/23 14:00:41;;;;;;;8.57;4.95;;;18.00;58.30;;;;;;10374928;28;20057;-61
2021/12/23 14:05:42;;;;;;;8.93;5.00;;;18.00;58.00;;;;;;10370308;28;20042;-62
2021/12/23 14:10:45;;;;;;;10.10;4.88;;;18.10;58.00;;;;;;10370939;28;20041;-62
2021/12/23 14:15:49;;;;;;;8.48;5.05;;;18.10;57.90;;;;;;10370645;28;20531;-62
2021/12/23 14:26:40;;;;;;;8.80;4.45;;;18.00;58.00;;;;;;10371233;28;20132;-62
2021/12/23 14:31:47;;;;;;;9.32;4.93;;;18.00;57.80;;;;;;10370257;28;20041;-62
2021/12/23 14:36:53;;;;;;;5.80;4.53;;;18.00;57.80;;;;;;10377966;28;20081;-62
2021/12/23 14:42:09;;;;;;;5.70;4.30;;;18.00;57.70;;;;;;10377325;28;20052;-62
2021/12/23 14:47:15;;;;;;;6.70;4.78;;;18.00;57.70;;;;;;10376800;28;20054;-61
2021/12/23 14:52:30;;;;;;;8.57;6.07;;;18.00;57.60;;;;;;10367495;28;20030;-61
2021/12/23 14:57:37;;;;;;;10.13;4.50;;;17.90;57.50;;;;;;10373432;28;20076;-61
2021/12/23 15:02:37;;;;;;;7.60;4.82;;;18.10;58.70;;;;;;10370398;28;20049;-61
2021/12/23 15:08:01;;;;;;;9.75;5.60;;;18.10;57.80;;;;;;10375539;28;20220;-62
2021/12/23 15:13:15;;;;;;;9.98;6.07;;;18.20;57.70;;;;;;10370910;28;20125;-61
2021/12/23 15:19:35;;;;;;;9.20;5.30;;;18.10;57.50;;;;;;10375502;28;20121;-60
2021/12/23 15:24:26;;;;;;;13.23;5.67;;;18.20;57.40;;;;;;10366470;28;20373;-60
2021/12/23 15:29:31;;;;;;;8.15;6.15;;;18.20;57.20;;;;;;10376174;28;20380;-61
2021/12/23 15:34:34;;;;;;;6.43;4.80;;;18.20;57.20;;;;;;10375718;28;20129;-61
2021/12/23 15:39:36;;;;;;;9.27;5.90;;;18.20;57.30;;;;;;10375807;28;20480;-61
2021/12/23 15:44:40;;;;;;;12.05;5.10;;;18.20;57.50;;;;;;10373995;28;20034;-61
2021/12/23 15:49:42;;;;;;;8.98;5.28;;;18.20;57.60;;;;;;10362618;28;20030;-60
2021/12/23 15:54:43;;;;;;;15.15;5.80;;;18.10;57.80;;;;;;10372407;28;20029;-62
2021/12/23 15:59:51;;;;;;;11.52;6.03;;;18.20;58.90;;;;;;10374627;28;20038;-62
2021/12/23 16:07:16;;;;;;;10.70;5.68;;;18.20;60.50;;;;;;10374320;28;20046;-61
2021/12/23 16:10:24;;;;;;;9.38;5.38;;;18.20;60.40;;;;;;10369022;28;20353;-61
2021/12/23 16:15:25;;;;;;;13.63;5.80;;;18.30;59.80;;;;;;10371847;28;20042;-64
2021/12/23 16:20:26;;;;;;;16.40;6.30;;;18.20;59.70;;;;;;10370113;28;20372;-63
2021/12/23 16:25:26;;;;;;;14.82;6.57;;;18.30;60.10;;;;;;10373059;28;20116;-62
2021/12/23 16:30:28;;;;;;;36.75;33.53;;;18.40;59.90;;;;;;10373046;28;20431;-62
2021/12/23 16:35:33;;;;;;;62.58;55.85;;;18.60;59.90;;;;;;10372867;28;20597;-61
2021/12/23 16:40:41;;;;;;;78.72;71.57;;;18.70;62.00;;;;;;10371640;28;20038;-61
2021/12/23 16:45:42;;;;;;;58.55;52.90;;;19.00;63.70;;;;;;10373175;28;20408;-61
2021/12/23 16:50:46;;;;;;;53.83;49.42;;;18.90;63.30;;;;;;10373666;28;20045;-61
2021/12/23 17:01:08;;;;;;;38.50;34.95;;;18.60;65.30;;;;;;10373861;28;20046;-60
2021/12/23 17:06:09;;;;;;;36.55;32.70;;;18.40;63.80;;;;;;10372144;28;20045;-60
2021/12/23 17:11:11;;;;;;;33.03;29.48;;;18.40;64.40;;;;;;10373094;28;20084;-62
2021/12/23 17:16:12;;;;;;;30.60;27.45;;;18.40;63.70;;;;;;10371133;28;20037;-61
2021/12/23 17:26:13;;;;;;;32.95;26.70;;;18.40;63.30;;;;;;10371962;28;20128;-61
2021/12/23 17:31:14;;;;;;;36.28;26.02;;;18.40;63.30;;;;;;10371877;28;20068;-62
2021/12/23 17:36:16;;;;;;;29.65;24.45;;;18.40;63.30;;;;;;10367878;28;20129;-62
2021/12/23 17:41:19;;;;;;;30.60;23.48;;;18.40;62.80;;;;;;10383814;28;20057;-64
2021/12/23 17:46:19;;;;;;;33.42;22.42;;;18.40;63.00;;;;;;10371713;28;20088;-62
2021/12/23 17:51:20;;;;;;;31.90;20.88;;;18.40;63.10;;;;;;10371396;28;20120;-63
2021/12/23 17:56:21;;;;;;;31.23;20.70;;;18.30;63.10;;;;;;10368817;28;20113;-63
2021/12/23 18:01:24;;;;;;;27.77;19.60;;;18.30;63.80;;;;;;10372625;28;20114;-62
2021/12/23 18:06:25;;;;;;;23.08;17.83;;;18.30;63.30;;;;;;10372053;28;20033;-64
2021/12/23 18:11:27;;;;;;;24.77;19.45;;;18.20;63.50;;;;;;10379316;28;20038;-63
2021/12/23 18:16:27;;;;;;;21.38;17.60;;;18.10;63.60;;;;;;10378763;28;20038;-62
2021/12/23 18:21:28;;;;;;;20.38;18.13;;;18.20;63.80;;;;;;10378138;28;20243;-62
2021/12/23 18:26:29;;;;;;;20.77;17.88;;;18.10;63.30;;;;;;10378095;28;20034;-62
2021/12/23 18:31:32;;;;;;;24.13;16.10;;;18.10;63.40;;;;;;10376943;28;20068;-61
2021/12/23 18:41:34;;;;;;;20.42;15.10;;;18.10;63.80;;;;;;10378342;28;20046;-63
2021/12/23 18:46:36;;;;;;;18.80;16.77;;;18.10;63.70;;;;;;10359809;28;20468;-62
2021/12/23 18:51:36;;;;;;;19.33;16.70;;;18.20;63.90;;;;;;10377054;28;20116;-63
2021/12/23 18:56:37;;;;;;;17.25;15.15;;;18.10;63.80;;;;;;10392327;28;20538;-62
2021/12/23 19:01:39;;;;;;;18.52;16.25;;;18.10;63.80;;;;;;10377253;28;20488;-61
2021/12/23 19:06:44;;;;;;;16.50;14.23;;;18.10;63.70;;;;;;10377416;28;20027;-62
2021/12/23 19:11:48;;;;;;;17.85;15.45;;;18.10;63.60;;;;;;10377415;28;20037;-63
2021/12/23 19:16:49;;;;;;;15.60;13.55;;;18.10;63.60;;;;;;10375686;28;20049;-61
2021/12/23 19:21:50;;;;;;;19.17;14.38;;;18.10;63.80;;;;;;10375795;28;20042;-61
2021/12/23 19:26:50;;;;;;;16.55;14.73;;;18.10;63.80;;;;;;10376380;28;20403;-60
2021/12/23 19:31:51;;;;;;;15.05;13.45;;;18.20;63.90;;;;;;10376490;28;20042;-64
2021/12/23 19:36:52;;;;;;;16.08;14.52;;;18.20;64.00;;;;;;10374859;28;20124;-61
2021/12/23 19:41:52;;;;;;;15.43;13.82;;;18.20;64.00;;;;;;10375596;28;20026;-64
2021/12/23 19:46:53;;;;;;;15.40;12.57;;;18.20;64.00;;;;;;10376106;28;20113;-63
2021/12/23 19:51:54;;;;;;;14.18;12.80;;;18.20;64.10;;;;;;10374274;28;20496;-62
2021/12/23 19:57:00;;;;;;;17.15;13.38;;;18.20;64.20;;;;;;10375621;28;20129;-63
2021/12/23 20:02:00;;;;;;;15.88;12.85;;;18.10;64.20;;;;;;10376862;28;20061;-62
2021/12/23 20:07:01;;;;;;;14.60;13.02;;;18.10;64.40;;;;;;10375036;28;20417;-62
2021/12/23 20:12:03;;;;;;;14.63;13.13;;;18.10;64.20;;;;;;10374206;28;20025;-64
2021/12/23 20:17:04;;;;;;;15.45;12.30;;;18.10;64.10;;;;;;10374786;28;20251;-63
2021/12/23 20:22:05;;;;;;;47.45;29.38;;;18.10;64.00;;;;;;10373057;28;20060;-62
2021/12/23 20:27:08;;;;;;;33.13;22.23;;;18.10;63.30;;;;;;10369010;28;20112;-62
2021/12/23 20:32:09;;;;;;;26.33;18.83;;;18.10;63.20;;;;;;10371622;28;20042;-63
2021/12/23 20:37:13;;;;;;;28.25;20.15;;;18.00;63.00;;;;;;10360188;28;20046;-63
2021/12/23 20:42:13;;;;;;;28.25;20.55;;;18.00;63.00;;;;;;10369572;28;20033;-63
2021/12/23 20:47:14;;;;;;;26.75;19.17;;;17.90;63.00;;;;;;10369903;28;20105;-63
2021/12/23 20:52:15;;;;;;;29.55;18.45;;;18.00;62.90;;;;;;10370859;28;20137;-64
2021/12/23 20:57:17;;;;;;;25.70;16.77;;;17.90;62.70;;;;;;10372687;28;20034;-64
2021/12/23 21:02:17;;;;;;;37.17;17.17;;;17.90;62.60;;;;;;10381119;28;20460;-62
2021/12/23 21:07:19;;;;;;;22.77;18.45;;;17.90;62.50;;;;;;10373262;28;20021;-63
2021/12/23 21:12:20;;;;;;;24.05;17.00;;;18.00;62.30;;;;;;10372451;28;20388;-63
2021/12/23 21:17:23;;;;;;;22.75;16.20;;;18.00;62.10;;;;;;10372495;28;20034;-63
2021/12/23 21:22:23;;;;;;;21.08;16.33;;;18.00;61.90;;;;;;10371893;28;20484;-63
2021/12/23 21:27:24;;;;;;;17.25;15.02;;;18.10;61.80;;;;;;10371910;28;20033;-64
2021/12/23 21:32:25;;;;;;;23.08;15.60;;;18.10;61.60;;;;;;10372201;28;20036;-63
2021/12/23 21:37:26;;;;;;;16.58;13.68;;;18.10;61.40;;;;;;10371690;28;20400;-62
2021/12/23 21:42:29;;;;;;;16.73;12.90;;;18.20;61.20;;;;;;10351932;28;20105;-62
2021/12/23 21:47:30;;;;;;;18.27;14.13;;;18.20;61.00;;;;;;10329909;28;20196;-62
2021/12/23 21:52:32;;;;;;;18.80;14.52;;;18.20;60.90;;;;;;10367277;28;20124;-63
2021/12/23 21:57:33;;;;;;;15.10;13.50;;;18.20;60.90;;;;;;10371312;28;20121;-63
2021/12/23 22:02:33;;;;;;;17.20;12.77;;;18.30;60.80;;;;;;10371412;28;20554;-63
2021/12/23 22:07:35;;;;;;;17.73;12.85;;;18.30;60.60;;;;;;10370241;28;20068;-63
2021/12/23 22:12:36;;;;;;;20.40;14.25;;;18.40;60.50;;;;;;10353272;28;20038;-63
2021/12/23 22:17:37;;;;;;;14.98;11.63;;;18.40;60.40;;;;;;10369694;28;20034;-63
2021/12/23 22:22:38;;;;;;;16.83;12.15;;;18.40;60.40;;;;;;10371002;28;20041;-63
2021/12/23 22:27:40;;;;;;;16.45;11.45;;;18.40;60.40;;;;;;10370658;28;20365;-63
2021/12/23 22:32:41;;;;;;;16.95;11.30;;;18.40;60.20;;;;;;10380261;28;20033;-63
2021/12/23 22:37:42;;;;;;;15.80;11.55;;;18.40;60.10;;;;;;10370364;28;20061;-63
2021/12/23 22:42:44;;;;;;;13.82;11.52;;;18.40;60.00;;;;;;10367395;28;20384;-63
2021/12/23 22:47:45;;;;;;;14.73;11.45;;;18.50;60.00;;;;;;10368992;28;20488;-62
2021/12/23 22:52:46;;;;;;;12.77;11.05;;;18.50;59.90;;;;;;10370329;28;20030;-62
2021/12/23 22:57:49;;;;;;;14.95;11.75;;;18.40;59.90;;;;;;10392680;28;20049;-62
2021/12/23 23:02:50;;;;;;;13.20;9.65;;;18.40;59.80;;;;;;10379551;28;20369;-63
2021/12/23 23:07:51;;;;;;;11.18;9.40;;;18.50;59.80;;;;;;10377193;28;20171;-62
2021/12/23 23:12:54;;;;;;;13.50;9.07;;;18.50;59.70;;;;;;10376808;28;20164;-62
2021/12/23 23:17:54;;;;;;;12.70;9.85;;;18.50;59.70;;;;;;10376663;28;20029;-63
2021/12/23 23:22:55;;;;;;;10.63;9.52;;;18.50;59.80;;;;;;10375223;28;20029;-63
2021/12/23 23:28:13;;;;;;;9.80;8.60;;;18.50;59.80;;;;;;10376535;28;20081;-62
2021/12/23 23:38:48;;;;;;;10.63;9.27;;;18.40;59.90;;;;;;10392914;28;20037;-63
2021/12/23 23:43:49;;;;;;;10.07;8.55;;;18.50;59.70;;;;;;10374878;28;20068;-63
2021/12/23 23:48:50;;;;;;;9.02;8.02;;;18.60;59.50;;;;;;10375711;28;20041;-63
2021/12/23 23:53:50;;;;;;;13.15;9.27;;;18.60;59.40;;;;;;10375052;28;20105;-63
2021/12/23 23:58:53;;;;;;;11.60;9.02;;;18.60;59.40;;;;;;10375223;28;20034;-62
